createdAt,value
2022-08-20T00:01:11.612Z,100472.50
2022-08-20T00:06:17.568Z,100461.97
2022-08-20T00:11:26.190Z,100466.53
2022-08-20T00:16:35.043Z,100467.75
2022-08-20T00:21:37.839Z,100463.25
2022-08-20T00:26:52.809Z,100464.69
2022-08-20T00:31:55.085Z,100465.97
2022-08-20T00:36:57.308Z,100463.91
2022-08-20T00:41:59.796Z,100465.78
2022-08-20T00:47:02.366Z,100470.94
2022-08-20T00:52:12.735Z,100466.00
2022-08-20T00:57:43.794Z,100482.94
2022-08-20T01:02:52.897Z,100480.84
2022-08-20T01:07:56.062Z,100483.50
2022-08-20T01:12:59.951Z,100480.19
2022-08-20T01:18:02.770Z,100475.66
2022-08-20T01:23:32.647Z,100482.28
2022-08-20T01:28:43.857Z,100474.81
2022-08-20T01:33:46.988Z,100482.66
2022-08-20T01:38:54.150Z,100495.25
2022-08-20T01:43:58.832Z,100493.38
2022-08-20T01:49:13.635Z,100489.06
2022-08-20T01:54:19.572Z,100475.78
2022-08-20T01:59:22.183Z,100479.72
2022-08-20T02:04:24.534Z,100480.91
2022-08-20T02:09:30.143Z,100489.41
2022-08-20T02:14:33.285Z,100499.06
2022-08-20T02:19:39.456Z,100496.81
2022-08-20T02:24:41.566Z,100501.75
2022-08-20T02:29:43.788Z,100489.56
2022-08-20T02:34:45.971Z,100505.03
2022-08-20T02:39:48.139Z,100500.69
2022-08-20T02:44:50.303Z,100505.84
2022-08-20T02:49:52.714Z,100513.50
2022-08-20T02:54:54.872Z,100518.88
2022-08-20T02:59:57.083Z,100517.22
2022-08-20T03:04:59.217Z,100523.22
2022-08-20T03:10:02.008Z,100519.13
2022-08-20T03:15:08.227Z,100520.81
2022-08-20T03:20:23.883Z,100528.88
2022-08-20T03:25:26.838Z,100530.91
2022-08-20T03:30:30.475Z,100511.66
2022-08-20T03:35:34.014Z,100533.84
2022-08-20T03:40:38.004Z,100532.00
2022-08-20T03:45:43.927Z,100531.22
2022-08-20T03:50:48.422Z,100524.38
2022-08-20T03:55:56.415Z,100530.78
2022-08-20T04:01:01.209Z,100531.84
2022-08-20T04:06:03.830Z,100531.25
2022-08-20T04:11:06.216Z,100535.41
2022-08-20T04:16:13.371Z,100531.72
2022-08-20T04:21:16.568Z,100541.25
2022-08-20T04:26:20.033Z,100533.81
2022-08-20T04:31:25.405Z,100533.78
2022-08-20T04:36:27.891Z,100527.31
2022-08-20T04:41:30.123Z,100520.38
2022-08-20T04:46:32.728Z,100521.91
2022-08-20T04:51:34.974Z,100521.22
2022-08-20T04:56:39.810Z,100523.31
2022-08-20T05:01:42.012Z,100518.72
2022-08-20T05:06:44.978Z,100512.47
2022-08-20T05:11:47.131Z,100515.44
2022-08-20T05:16:50.939Z,100520.00
2022-08-20T05:21:53.811Z,100518.63
2022-08-20T05:26:56.166Z,100521.78
2022-08-20T05:31:58.253Z,100523.00
2022-08-20T05:37:04.276Z,100533.50
2022-08-20T05:42:11.302Z,100530.84
2022-08-20T05:47:14.090Z,100521.91
2022-08-20T05:52:16.438Z,100530.88
2022-08-20T05:57:20.280Z,100537.34
2022-08-20T06:02:40.833Z,100527.69
2022-08-20T06:07:43.281Z,100524.91
2022-08-20T06:12:45.601Z,100537.72
2022-08-20T06:17:51.217Z,100539.38
2022-08-20T06:23:00.689Z,100541.75
2022-08-20T06:28:03.887Z,100530.44
2022-08-20T06:33:06.343Z,100527.13
2022-08-20T06:38:11.342Z,100543.13
2022-08-20T06:43:13.657Z,100528.75
2022-08-20T06:48:17.337Z,100514.00
2022-08-20T06:53:20.978Z,100524.50
2022-08-20T06:58:36.870Z,100509.78
2022-08-20T07:03:54.780Z,100520.06
2022-08-20T07:08:58.093Z,100510.78
2022-08-20T07:14:01.395Z,100513.06
2022-08-20T07:19:04.030Z,100516.28
2022-08-20T07:24:06.743Z,100512.94
2022-08-20T07:29:08.844Z,100494.06
2022-08-20T07:34:11.746Z,100511.69
2022-08-20T07:39:14.726Z,100509.28
2022-08-20T07:44:17.528Z,100494.84
2022-08-20T07:49:19.655Z,100502.91
2022-08-20T07:54:21.847Z,100504.75
2022-08-20T07:59:24.131Z,100502.31
2022-08-20T08:04:26.394Z,100504.03
2022-08-20T08:09:29.059Z,100493.84
2022-08-20T08:14:34.323Z,100515.69
2022-08-20T08:19:43.202Z,100502.91
2022-08-20T08:24:56.825Z,100498.81
2022-08-20T08:30:01.218Z,100479.81
2022-08-20T08:35:09.159Z,100488.72
2022-08-20T08:40:11.676Z,100497.06
2022-08-20T08:45:17.411Z,100486.91
2022-08-20T08:50:50.006Z,100476.03
2022-08-20T08:55:48.799Z,100488.56
2022-08-20T09:00:56.143Z,100500.59
2022-08-20T09:06:01.392Z,100497.03
2022-08-20T09:11:06.363Z,100513.84
2022-08-20T09:16:08.690Z,100515.69
2022-08-20T09:21:11.117Z,100498.84
2022-08-20T09:26:13.799Z,100506.47
2022-08-20T09:31:16.035Z,100509.91
2022-08-20T09:36:32.159Z,100503.22
2022-08-20T09:41:35.036Z,100523.44
2022-08-20T09:46:37.335Z,100529.72
2022-08-20T09:51:39.513Z,100533.59
2022-08-20T09:56:41.890Z,100534.16
2022-08-20T10:01:44.157Z,100535.00
2022-08-20T10:06:46.442Z,100529.31
2022-08-20T10:11:48.584Z,100520.00
2022-08-20T10:16:56.520Z,100516.06
2022-08-20T10:22:02.646Z,100516.63
2022-08-20T10:27:05.169Z,100502.06
2022-08-20T10:32:12.990Z,100510.25
2022-08-20T10:37:17.892Z,100512.72
2022-08-20T10:42:20.367Z,100511.00
2022-08-20T10:47:28.648Z,100506.00
2022-08-20T10:52:31.003Z,100507.47
2022-08-20T10:57:34.378Z,100510.97
2022-08-20T11:02:36.877Z,100511.25
2022-08-20T11:07:50.741Z,100511.97
2022-08-20T11:13:04.315Z,100506.44
2022-08-20T11:18:06.972Z,100491.75
2022-08-20T11:23:09.244Z,100496.13
2022-08-20T11:28:13.017Z,100494.16
2022-08-20T11:33:15.260Z,100494.03
2022-08-20T11:38:18.574Z,100490.16
2022-08-20T11:43:20.821Z,100474.00
2022-08-20T11:48:23.160Z,100476.72
2022-08-20T11:53:25.474Z,100462.94
2022-08-20T11:58:27.687Z,100443.09
2022-08-20T12:03:31.116Z,100463.78
2022-08-20T12:08:33.305Z,100453.03
2022-08-20T12:13:47.135Z,100440.34
2022-08-20T12:18:52.027Z,100431.13
2022-08-20T12:23:54.194Z,100424.56
2022-08-20T12:28:56.431Z,100427.75
2022-08-20T12:33:58.779Z,100432.81
2022-08-20T12:39:01.050Z,100415.16
2022-08-20T12:44:07.106Z,100405.28
2022-08-20T12:49:18.455Z,100406.53
2022-08-20T12:54:20.535Z,100396.81
2022-08-20T12:59:26.116Z,100408.22
2022-08-20T13:04:28.557Z,100399.84
2022-08-20T13:09:31.594Z,100386.09
2022-08-20T13:14:34.891Z,100382.69
2022-08-20T13:19:38.599Z,100367.63
2022-08-20T13:24:40.902Z,100379.75
2022-08-20T13:29:54.089Z,100373.84
2022-08-20T13:35:00.146Z,100373.38
2022-08-20T13:40:02.751Z,100370.56
2022-08-20T13:45:06.435Z,100351.72
2022-08-20T13:50:18.747Z,100360.25
2022-08-20T13:55:23.370Z,100364.25
2022-08-20T14:00:32.357Z,100357.84
2022-08-20T14:05:35.559Z,100366.16
2022-08-20T14:10:38.272Z,100352.91
2022-08-20T14:15:41.554Z,100346.56
2022-08-20T14:20:45.421Z,100325.72
2022-08-20T14:25:50.363Z,100329.00
2022-08-20T14:30:53.627Z,100317.19
2022-08-20T14:35:55.950Z,100341.13
2022-08-20T14:40:58.124Z,100302.72
2022-08-20T14:46:00.270Z,100316.81
2022-08-20T14:51:03.241Z,100314.59
2022-08-20T14:56:05.689Z,100310.84
2022-08-20T15:01:07.996Z,100317.31
2022-08-20T15:06:21.884Z,100312.94
2022-08-20T15:11:24.812Z,100309.91
2022-08-20T15:16:28.209Z,100302.31
2022-08-20T15:21:44.809Z,100301.13
2022-08-20T15:26:48.519Z,100299.69
2022-08-20T15:31:51.552Z,100315.13
2022-08-20T15:36:53.769Z,100304.28
2022-08-20T15:41:55.977Z,100298.28
2022-08-20T15:47:23.722Z,100298.69
2022-08-20T15:52:31.058Z,100297.47
2022-08-20T15:58:04.062Z,100296.94
2022-08-20T16:03:32.302Z,100292.59
2022-08-20T16:09:05.126Z,100294.63
2022-08-20T16:14:19.615Z,100295.13
2022-08-20T16:19:26.139Z,100288.66
2022-08-20T16:24:28.653Z,100295.63
2022-08-20T16:30:04.869Z,100293.75
2022-08-20T16:35:29.421Z,100302.47
2022-08-20T16:40:51.935Z,100313.72
2022-08-20T16:46:12.889Z,100318.44
2022-08-20T16:51:27.481Z,100314.22
2022-08-20T16:56:34.493Z,100313.38
2022-08-20T17:01:37.920Z,100322.72
2022-08-20T17:06:46.375Z,100326.84
2022-08-20T17:11:49.439Z,100319.97
2022-08-20T17:16:52.818Z,100326.69
2022-08-20T17:21:57.154Z,100317.75
2022-08-20T17:27:10.042Z,100326.44
2022-08-20T17:32:22.653Z,100323.63
2022-08-20T17:37:33.448Z,100320.09
2022-08-20T17:42:57.246Z,100314.25
2022-08-20T17:48:01.170Z,100324.50
2022-08-20T17:53:27.465Z,100310.34
2022-08-20T17:58:38.102Z,100302.78
2022-08-20T18:03:40.623Z,100305.19
2022-08-20T18:08:52.711Z,100315.22
2022-08-20T18:14:11.412Z,100309.00
2022-08-20T18:19:22.123Z,100307.03
2022-08-20T18:24:34.034Z,100304.56
2022-08-20T18:29:39.139Z,100312.09
2022-08-20T18:34:42.215Z,100307.25
2022-08-20T18:39:47.016Z,100319.53
2022-08-20T18:44:52.486Z,100311.56
2022-08-20T18:50:06.500Z,100315.06
2022-08-20T18:55:28.115Z,100313.06
2022-08-20T19:00:43.991Z,100313.94
2022-08-20T19:05:46.262Z,100306.31
2022-08-20T19:11:24.432Z,100312.53
2022-08-20T19:16:37.283Z,100309.81
2022-08-20T19:21:43.616Z,100317.75
2022-08-20T19:26:52.216Z,100323.13
2022-08-20T19:32:02.993Z,100322.31
2022-08-20T19:37:35.761Z,100304.66
2022-08-20T19:42:42.392Z,100328.13
2022-08-20T19:48:02.719Z,100322.53
2022-08-20T19:53:30.819Z,100327.31
2022-08-20T19:58:33.988Z,100317.50
2022-08-20T20:03:37.986Z,100314.38
2022-08-20T20:08:44.567Z,100319.16
2022-08-20T20:13:47.166Z,100320.06
2022-08-20T20:19:09.114Z,100324.41
2022-08-20T20:24:22.404Z,100331.69
2022-08-20T20:29:28.071Z,100317.72
2022-08-20T20:34:38.121Z,100305.97
2022-08-20T20:40:27.289Z,100331.28
2022-08-20T20:45:35.033Z,100328.00
2022-08-20T20:50:40.333Z,100309.28
2022-08-20T20:55:54.624Z,100326.75
2022-08-20T21:00:56.778Z,100324.63
2022-08-20T21:05:58.886Z,100315.09
2022-08-20T21:11:01.364Z,100311.59
2022-08-20T21:16:03.794Z,100318.88
2022-08-20T21:21:08.317Z,100325.75
2022-08-20T21:26:10.478Z,100319.63
2022-08-20T21:31:13.333Z,100315.09
2022-08-20T21:36:15.498Z,100313.94
2022-08-20T21:41:17.930Z,100318.72
2022-08-20T21:46:24.864Z,100317.50
2022-08-20T21:51:27.311Z,100320.22
2022-08-20T21:56:33.802Z,100328.13
2022-08-20T22:01:38.363Z,100318.03
2022-08-20T22:06:40.658Z,100324.44
2022-08-20T22:11:42.893Z,100322.41
2022-08-20T22:16:45.560Z,100329.28
2022-08-20T22:21:49.526Z,100332.19
2022-08-20T22:26:52.184Z,100329.50
2022-08-20T22:31:54.458Z,100333.88
2022-08-20T22:36:58.536Z,100325.81
2022-08-20T22:42:00.771Z,100321.88
2022-08-20T22:47:07.182Z,100322.28
2022-08-20T22:52:10.970Z,100315.72
2022-08-20T22:57:14.710Z,100313.25
2022-08-20T23:02:18.383Z,100311.00
2022-08-20T23:07:21.060Z,100309.81
2022-08-20T23:12:24.131Z,100301.34
2022-08-20T23:17:26.578Z,100317.91
2022-08-20T23:22:29.032Z,100309.25
2022-08-20T23:27:32.902Z,100312.56
2022-08-20T23:32:35.044Z,100316.31
2022-08-20T23:37:45.892Z,100309.91
2022-08-20T23:42:48.219Z,100304.75
2022-08-20T23:47:50.457Z,100310.31
2022-08-20T23:52:54.070Z,100313.88
2022-08-20T23:57:56.436Z,100308.06
